Time;durP1;ratioP1;P1;durP2;ratioP2;P2;SDS_P1;SDS_P2;PMS_P1;PMS_P2;Temp;Humidity;BMP_temperature;BMP_pressure;BME280_temperature;BME280_humidity;BME280_pressure;Samples;Min_cycle;Max_cycle;Signal;HPM_P1;HPM_P2
2022/06/09 00:01:31;;;;;;;61.33;17.83;;;13.90;99.90;;;;;;5031786;28;20038;-85
2022/06/09 00:04:19;;;;;;;59.90;17.90;;;13.80;99.90;;;;;;5031638;28;20092;-84
2022/06/09 00:06:54;;;;;;;37.63;13.95;;;13.80;99.90;;;;;;4981486;28;20057;-88
2022/06/09 00:09:26;;;;;;;67.25;17.52;;;13.70;99.90;;;;;;4975122;28;20054;-84
2022/06/09 00:11:52;;;;;;;58.63;15.10;;;13.80;99.90;;;;;;4975061;28;20161;-84
2022/06/09 00:14:18;;;;;;;44.35;14.68;;;13.70;99.90;;;;;;4990941;28;20396;-85
2022/06/09 00:16:44;;;;;;;57.25;15.70;;;13.60;99.90;;;;;;4965498;28;20054;-84
2022/06/09 00:19:11;;;;;;;79.70;18.73;;;13.50;99.90;;;;;;4994597;28;20049;-84
2022/06/09 00:21:37;;;;;;;67.50;15.57;;;13.50;99.90;;;;;;4994438;28;20064;-84
2022/06/09 00:24:04;;;;;;;77.72;16.40;;;13.40;99.90;;;;;;4994355;28;20046;-84
2022/06/09 00:26:31;;;;;;;61.33;15.82;;;13.30;99.90;;;;;;4993725;28;20419;-84
2022/06/09 00:28:57;;;;;;;54.88;14.98;;;13.30;99.90;;;;;;4988149;28;20065;-84
2022/06/09 00:31:24;;;;;;;51.60;14.45;;;13.30;99.90;;;;;;4975007;28;20447;-84
2022/06/09 00:33:49;;;;;;;70.07;16.45;;;13.20;99.90;;;;;;4959623;28;20042;-84
2022/06/09 00:36:15;;;;;;;60.03;16.02;;;13.20;99.90;;;;;;4994250;28;20049;-85
2022/06/09 00:38:41;;;;;;;71.47;17.20;;;13.20;99.90;;;;;;4965268;28;20097;-84
2022/06/09 00:41:07;;;;;;;55.88;15.50;;;13.10;99.90;;;;;;4977593;28;20038;-84
2022/06/09 00:43:33;;;;;;;56.22;15.00;;;13.10;99.90;;;;;;4984099;28;20057;-84
2022/06/09 00:46:09;;;;;;;39.13;12.90;;;13.00;99.90;;;;;;5035005;28;20056;-84
2022/06/09 00:48:38;;;;;;;51.08;14.15;;;13.00;99.90;;;;;;5036270;28;20040;-84
2022/06/09 00:51:27;;;;;;;38.60;12.48;;;13.10;99.90;;;;;;5035358;28;20128;-84
2022/06/09 00:53:59;;;;;;;60.83;14.43;;;13.10;99.90;;;;;;5018334;28;20115;-84
2022/06/09 00:56:26;;;;;;;54.15;13.35;;;13.00;99.90;;;;;;5034866;28;20160;-84
2022/06/09 00:58:54;;;;;;;66.13;14.68;;;13.00;99.90;;;;;;5036268;28;20125;-84
2022/06/09 01:01:20;;;;;;;47.42;13.15;;;13.00;99.90;;;;;;5035094;28;20037;-84
2022/06/09 01:03:56;;;;;;;59.60;13.55;;;13.00;99.90;;;;;;5046941;28;20048;-91
2022/06/09 01:06:27;;;;;;;56.45;13.85;;;12.90;99.90;;;;;;5054613;28;20049;-85
2022/06/09 01:09:14;;;;;;;45.78;12.77;;;12.90;99.90;;;;;;5054633;28;20059;-84
2022/06/09 01:11:41;;;;;;;42.00;12.00;;;12.90;99.90;;;;;;5054922;28;20079;-84
2022/06/09 01:14:13;;;;;;;41.80;12.73;;;12.80;99.90;;;;;;5054572;28;20040;-84
2022/06/09 01:17:11;;;;;;;41.60;11.95;;;12.80;99.90;;;;;;5054777;28;20047;-84
2022/06/09 01:20:11;;;;;;;47.70;12.48;;;12.80;99.90;;;;;;5037581;28;20381;-86
2022/06/09 01:22:36;;;;;;;64.38;13.90;;;12.70;99.90;;;;;;5017884;28;20506;-84
2022/06/09 01:25:23;;;;;;;59.25;12.93;;;12.60;99.90;;;;;;5034472;28;20120;-84
2022/06/09 01:27:58;;;;;;;54.58;13.65;;;12.70;99.90;;;;;;5022399;28;20371;-84
2022/06/09 01:30:54;;;;;;;51.22;13.52;;;12.70;99.90;;;;;;5052987;28;20122;-84
2022/06/09 01:33:38;;;;;;;57.05;14.07;;;12.60;99.90;;;;;;5017948;28;20124;-84
2022/06/09 01:36:14;;;;;;;60.97;14.75;;;12.60;99.90;;;;;;5017687;28;20095;-84
2022/06/09 01:39:01;;;;;;;43.95;12.98;;;12.60;99.90;;;;;;5051116;28;20410;-84
2022/06/09 01:41:27;;;;;;;69.40;16.27;;;12.60;99.90;;;;;;5036176;28;20538;-84
2022/06/09 01:43:55;;;;;;;59.97;14.57;;;12.50;99.90;;;;;;5017454;28;20125;-84
2022/06/09 01:46:33;;;;;;;57.15;15.27;;;12.50;99.90;;;;;;5034047;28;20037;-84
2022/06/09 01:49:13;;;;;;;50.00;13.00;;;12.50;99.90;;;;;;5017818;28;20516;-84
2022/06/09 01:51:42;;;;;;;58.85;15.55;;;12.50;99.90;;;;;;5033646;28;20067;-85
2022/06/09 01:54:28;;;;;;;64.43;16.88;;;12.40;99.90;;;;;;5017086;28;20057;-84
2022/06/09 01:57:03;;;;;;;61.70;16.23;;;12.40;99.90;;;;;;5033946;28;20045;-84
2022/06/09 01:59:38;;;;;;;67.13;16.77;;;12.30;99.90;;;;;;5033625;28;20494;-84
2022/06/09 02:02:12;;;;;;;76.32;18.15;;;12.30;99.90;;;;;;5017478;28;20388;-84
2022/06/09 02:04:51;;;;;;;78.38;17.75;;;12.30;99.90;;;;;;5053333;28;20044;-84
2022/06/09 02:07:19;;;;;;;53.42;16.52;;;12.30;99.90;;;;;;5053818;28;20037;-84
2022/06/09 02:09:45;;;;;;;74.32;17.30;;;12.30;99.90;;;;;;5044540;28;20489;-84
2022/06/09 02:12:15;;;;;;;58.53;17.52;;;12.30;99.90;;;;;;5034051;28;20128;-84
2022/06/09 02:14:47;;;;;;;52.85;17.30;;;12.30;99.90;;;;;;5050221;28;20055;-84
2022/06/09 02:17:14;;;;;;;89.57;20.17;;;12.30;99.90;;;;;;5053498;28;20090;-83
2022/06/09 02:19:41;;;;;;;81.68;19.73;;;12.30;99.90;;;;;;5054587;28;20371;-84
2022/06/09 02:22:10;;;;;;;70.47;18.38;;;12.30;99.90;;;;;;5053467;28;20051;-84
2022/06/09 02:24:36;;;;;;;66.25;16.80;;;12.30;99.90;;;;;;5051530;28;20394;-84
2022/06/09 02:27:02;;;;;;;70.00;17.52;;;12.20;99.90;;;;;;5053671;28;20132;-84
2022/06/09 02:29:28;;;;;;;82.22;19.73;;;12.20;99.90;;;;;;5053232;28;20094;-84
2022/06/09 02:31:54;;;;;;;57.78;15.60;;;12.20;99.90;;;;;;5053310;28;20470;-84
2022/06/09 02:34:20;;;;;;;88.20;20.73;;;12.20;99.90;;;;;;5051137;28;20050;-84
2022/06/09 02:36:46;;;;;;;53.22;16.33;;;12.30;99.90;;;;;;5036867;28;20046;-84
2022/06/09 02:39:12;;;;;;;68.28;18.05;;;12.20;99.90;;;;;;5033101;28;20103;-84
2022/06/09 02:41:37;;;;;;;83.43;19.65;;;12.20;99.90;;;;;;5034299;28;20497;-84
2022/06/09 02:44:04;;;;;;;60.33;16.63;;;12.20;99.90;;;;;;5033180;28;20050;-84
2022/06/09 02:46:30;;;;;;;74.25;17.80;;;12.20;99.90;;;;;;5047206;28;20106;-84
2022/06/09 02:48:56;;;;;;;63.15;16.38;;;12.20;99.90;;;;;;5052943;28;20441;-84
2022/06/09 02:51:29;;;;;;;77.07;18.65;;;12.20;99.90;;;;;;5052588;28;20041;-84
2022/06/09 02:53:57;;;;;;;90.60;18.40;;;12.30;99.90;;;;;;5032434;28;20044;-84
2022/06/09 02:56:23;;;;;;;74.75;17.88;;;12.30;99.90;;;;;;5033714;28;20494;-84
2022/06/09 02:58:49;;;;;;;66.65;17.80;;;12.10;99.90;;;;;;5033005;28;20532;-83
2022/06/09 03:01:15;;;;;;;61.53;16.35;;;12.20;99.90;;;;;;5016037;28;20049;-90
2022/06/09 03:03:40;;;;;;;67.63;19.33;;;12.20;99.90;;;;;;5032216;28;20045;-85
2022/06/09 03:06:06;;;;;;;81.60;19.88;;;12.20;99.90;;;;;;5033461;28;20041;-85
2022/06/09 03:08:32;;;;;;;91.03;19.73;;;12.20;99.90;;;;;;5031579;28;20127;-84
2022/06/09 03:10:58;;;;;;;101.45;22.40;;;12.10;99.90;;;;;;5032038;28;20469;-84
2022/06/09 03:13:24;;;;;;;94.10;22.20;;;12.20;99.90;;;;;;5015713;28;20045;-83
2022/06/09 03:15:50;;;;;;;65.30;18.13;;;12.30;99.90;;;;;;5032586;28;20106;-84
2022/06/09 03:18:17;;;;;;;72.65;19.55;;;12.30;99.90;;;;;;5033291;28;20049;-84
2022/06/09 03:20:44;;;;;;;80.93;19.88;;;12.40;99.90;;;;;;5033445;28;20050;-84
2022/06/09 03:23:10;;;;;;;63.25;18.80;;;12.30;99.90;;;;;;5032230;28;20042;-84
2022/06/09 03:25:37;;;;;;;67.78;19.65;;;12.40;99.90;;;;;;5032171;28;20055;-84
2022/06/09 03:28:04;;;;;;;70.25;18.83;;;12.40;99.90;;;;;;5022255;28;20247;-83
2022/06/09 03:30:30;;;;;;;84.50;18.45;;;12.40;99.90;;;;;;5052603;28;20048;-83
2022/06/09 03:32:55;;;;;;;89.35;20.30;;;12.40;99.90;;;;;;5035427;28;20045;-84
2022/06/09 03:35:21;;;;;;;87.07;20.80;;;12.30;99.90;;;;;;5052131;28;20445;-84
2022/06/09 03:37:46;;;;;;;66.57;18.48;;;12.30;99.90;;;;;;5051635;28;20124;-85
2022/06/09 03:40:16;;;;;;;84.03;18.95;;;12.30;99.90;;;;;;5033944;28;20088;-83
2022/06/09 03:42:41;;;;;;;79.25;19.95;;;12.20;99.90;;;;;;5033050;28;20479;-88
2022/06/09 03:45:08;;;;;;;78.53;19.83;;;12.20;99.90;;;;;;5032171;28;20095;-84
2022/06/09 03:47:33;;;;;;;78.88;18.77;;;12.20;99.90;;;;;;5015635;28;20045;-84
2022/06/09 03:49:59;;;;;;;71.15;18.48;;;12.40;99.90;;;;;;5016556;28;20597;-84
2022/06/09 03:52:25;;;;;;;79.90;19.65;;;12.20;99.90;;;;;;5037141;28;20108;-84
2022/06/09 03:54:51;;;;;;;84.97;20.50;;;12.30;99.90;;;;;;5051300;28;20072;-85
2022/06/09 03:57:18;;;;;;;84.85;18.65;;;12.30;99.90;;;;;;5051935;28;20094;-84
2022/06/09 03:59:43;;;;;;;60.10;16.38;;;12.30;99.90;;;;;;5050234;28;20049;-85
2022/06/09 04:02:09;;;;;;;60.20;17.40;;;12.30;99.90;;;;;;5051906;28;20060;-84
2022/06/09 04:04:35;;;;;;;74.53;19.38;;;12.30;99.90;;;;;;5050738;28;20048;-84
2022/06/09 04:07:01;;;;;;;56.42;19.48;;;12.40;99.90;;;;;;5031942;28;20383;-84
2022/06/09 04:09:26;;;;;;;77.18;19.50;;;12.40;99.90;;;;;;5031698;28;20044;-85
2022/06/09 04:11:52;;;;;;;59.03;17.42;;;12.50;99.90;;;;;;5031919;28;20042;-83
2022/06/09 04:14:18;;;;;;;54.92;16.45;;;12.60;99.90;;;;;;5031551;28;20049;-84
2022/06/09 04:16:44;;;;;;;57.25;15.63;;;12.70;99.90;;;;;;5036798;28;20049;-83
2022/06/09 04:19:12;;;;;;;70.45;17.42;;;12.70;99.90;;;;;;5036788;28;20041;-83
2022/06/09 04:21:39;;;;;;;65.40;18.38;;;12.70;99.90;;;;;;5019536;28;20398;-83
2022/06/09 04:24:05;;;;;;;59.85;16.70;;;12.80;99.90;;;;;;5035488;28;20056;-84
2022/06/09 04:26:34;;;;;;;44.65;15.85;;;12.70;99.90;;;;;;5037005;28;20120;-83
2022/06/09 04:29:00;;;;;;;59.70;15.98;;;12.80;99.90;;;;;;5035766;28;20053;-83
2022/06/09 04:31:26;;;;;;;62.38;17.50;;;12.90;99.90;;;;;;5035762;28;20103;-83
2022/06/09 04:33:51;;;;;;;48.78;15.73;;;12.90;99.90;;;;;;5035305;28;20076;-83
2022/06/09 04:36:19;;;;;;;49.33;15.20;;;13.00;99.90;;;;;;5035587;28;20092;-85
2022/06/09 04:38:45;;;;;;;56.33;16.85;;;13.00;99.90;;;;;;5055152;28;20045;-84
2022/06/09 04:41:12;;;;;;;47.45;14.55;;;13.00;99.90;;;;;;5054492;28;20049;-84
2022/06/09 04:43:40;;;;;;;45.55;13.57;;;13.20;99.90;;;;;;5055401;28;20053;-83
2022/06/09 04:46:08;;;;;;;49.45;15.52;;;13.10;99.90;;;;;;5055378;28;20070;-83
2022/06/09 04:48:35;;;;;;;48.55;13.57;;;13.00;99.90;;;;;;5053461;28;20045;-84
2022/06/09 04:51:01;;;;;;;42.63;13.35;;;13.00;99.90;;;;;;5056179;28;20080;-84
2022/06/09 04:53:27;;;;;;;41.42;14.30;;;12.90;99.90;;;;;;5038410;28;20126;-84
2022/06/09 04:55:53;;;;;;;38.40;13.57;;;12.90;99.90;;;;;;5038538;28;20137;-84
2022/06/09 04:58:18;;;;;;;31.90;11.93;;;12.90;99.90;;;;;;5047451;28;20036;-83
2022/06/09 05:00:44;;;;;;;33.97;11.95;;;12.90;99.90;;;;;;5036416;28;20041;-84
2022/06/09 05:03:13;;;;;;;42.17;14.25;;;12.90;99.90;;;;;;5043162;28;20064;-83
2022/06/09 05:05:42;;;;;;;473.75;39.42;;;13.00;99.90;;;;;;5049931;28;20044;-83
2022/06/09 05:08:08;;;;;;;38.83;12.75;;;13.10;99.90;;;;;;5026082;28;20426;-85
2022/06/09 05:10:34;;;;;;;42.90;14.73;;;13.00;99.90;;;;;;5038005;28;20037;-83
2022/06/09 05:13:01;;;;;;;27.25;10.32;;;13.10;99.90;;;;;;5037545;28;20469;-83
2022/06/09 05:15:27;;;;;;;25.58;10.27;;;13.20;99.90;;;;;;5054483;28;20048;-83
2022/06/09 05:17:54;;;;;;;21.75;9.98;;;13.10;99.90;;;;;;5054394;28;20485;-83
2022/06/09 05:20:22;;;;;;;26.50;9.90;;;13.30;99.90;;;;;;5037638;28;20512;-83
2022/06/09 05:22:48;;;;;;;26.35;10.63;;;13.30;99.90;;;;;;5034820;28;20392;-85
2022/06/09 05:25:14;;;;;;;29.92;11.48;;;13.30;99.90;;;;;;5037964;28;20091;-84
2022/06/09 05:27:40;;;;;;;26.58;11.32;;;13.40;99.90;;;;;;5033649;28;20107;-83
2022/06/09 05:30:11;;;;;;;22.33;9.95;;;13.60;99.90;;;;;;5017366;28;20057;-83
2022/06/09 05:32:37;;;;;;;26.40;10.95;;;13.70;99.90;;;;;;5052131;28;20098;-84
2022/06/09 05:35:22;;;;;;;22.27;11.02;;;13.80;99.90;;;;;;5053872;28;20041;-83
2022/06/09 05:46:03;;;;;;;22.95;9.93;;;14.00;99.90;;;;;;5053866;28;20056;-84
2022/06/09 05:48:29;;;;;;;21.63;9.48;;;14.10;99.90;;;;;;5054438;28;20052;-86
2022/06/09 05:50:55;;;;;;;31.40;11.95;;;14.10;99.90;;;;;;5054141;28;20066;-85
2022/06/09 05:53:21;;;;;;;20.60;8.50;;;14.10;99.90;;;;;;5053896;28;20422;-83
2022/06/09 05:55:46;;;;;;;20.75;9.48;;;14.20;99.90;;;;;;5037337;28;20041;-81
2022/06/09 05:58:12;;;;;;;15.48;7.97;;;14.40;99.90;;;;;;5054019;28;20056;-84
2022/06/09 06:00:41;;;;;;;14.05;6.90;;;14.40;99.90;;;;;;5053808;28;20048;-83
2022/06/09 06:03:09;;;;;;;15.48;8.15;;;14.40;99.90;;;;;;5037411;28;20045;-83
2022/06/09 06:08:19;;;;;;;18.55;6.88;;;14.50;99.90;;;;;;5053896;28;20384;-82
2022/06/09 06:10:44;;;;;;;17.85;7.25;;;14.60;99.90;;;;;;5053978;28;20102;-83
2022/06/09 06:13:10;;;;;;;13.98;7.13;;;14.70;99.90;;;;;;5053389;28;20037;-84
2022/06/09 06:15:36;;;;;;;16.33;7.32;;;14.80;99.90;;;;;;5036833;28;20574;-83
2022/06/09 06:18:02;;;;;;;19.23;8.20;;;14.80;99.90;;;;;;5036923;28;20092;-82
2022/06/09 06:20:30;;;;;;;21.52;8.25;;;14.90;99.90;;;;;;5053555;28;20084;-85
2022/06/09 06:22:55;;;;;;;14.15;8.55;;;15.00;99.90;;;;;;5053263;28;20166;-84
2022/06/09 06:25:22;;;;;;;16.38;8.85;;;15.00;99.90;;;;;;5053172;28;20517;-83
2022/06/09 06:27:48;;;;;;;8.48;7.15;;;15.10;99.90;;;;;;5052944;28;20045;-85
2022/06/09 06:30:13;;;;;;;13.90;9.40;;;15.20;99.90;;;;;;5054094;28;20049;-84
2022/06/09 06:32:39;;;;;;;14.75;9.02;;;15.10;99.90;;;;;;5054211;28;20479;-84
2022/06/09 06:35:06;;;;;;;11.93;7.75;;;15.20;99.90;;;;;;5054165;28;20482;-84
2022/06/09 06:37:32;;;;;;;14.48;8.15;;;15.20;99.90;;;;;;5053172;28;20061;-84
2022/06/09 06:39:58;;;;;;;12.30;8.18;;;15.40;99.90;;;;;;5036309;28;20087;-84
2022/06/09 06:42:23;;;;;;;12.60;7.93;;;15.50;99.90;;;;;;5053526;28;20080;-85
2022/06/09 06:44:49;;;;;;;16.15;8.98;;;15.40;99.90;;;;;;5053465;28;20052;-84
2022/06/09 06:47:15;;;;;;;11.40;7.78;;;15.50;99.90;;;;;;5052995;28;20390;-84
2022/06/09 06:49:41;;;;;;;10.45;7.85;;;16.10;99.90;;;;;;5053026;28;20047;-84
2022/06/09 06:52:06;;;;;;;11.00;7.78;;;16.80;99.90;;;;;;5054687;28;20049;-85
2022/06/09 06:54:32;;;;;;;10.00;7.10;;;17.20;99.90;;;;;;5054374;28;20045;-84
2022/06/09 06:56:58;;;;;;;8.77;6.63;;;16.90;99.90;;;;;;5053492;28;20478;-84
2022/06/09 06:59:23;;;;;;;10.32;6.85;;;16.70;99.90;;;;;;5053666;28;20045;-86
2022/06/09 07:01:49;;;;;;;8.32;5.72;;;17.00;99.90;;;;;;5053756;28;20053;-85
2022/06/09 07:04:15;;;;;;;8.82;5.20;;;17.30;99.90;;;;;;5052883;28;20044;-87
2022/06/09 07:06:40;;;;;;;8.18;4.97;;;17.30;99.90;;;;;;5053740;28;20049;-85
2022/06/09 07:09:09;;;;;;;9.52;4.45;;;18.00;99.90;;;;;;5054221;28;20474;-86
2022/06/09 07:11:35;;;;;;;7.43;4.15;;;18.70;99.90;;;;;;5054339;28;20696;-86
2022/06/09 07:14:01;;;;;;;10.95;3.47;;;19.30;99.90;;;;;;5053011;28;20094;-86
2022/06/09 07:16:26;;;;;;;7.43;3.70;;;19.40;99.90;;;;;;5052956;28;20390;-85
2022/06/09 07:22:17;;;;;;;11.85;3.50;;;19.60;99.90;;;;;;5053056;28;20057;-87
2022/06/09 07:24:43;;;;;;;7.00;3.08;;;20.10;99.90;;;;;;5052797;28;20053;-86
2022/06/09 07:27:08;;;;;;;4.75;3.00;;;20.30;99.90;;;;;;5052785;28;20036;-86
2022/06/09 07:29:35;;;;;;;7.05;2.60;;;20.70;99.90;;;;;;5052993;28;20045;-85
2022/06/09 07:32:01;;;;;;;8.88;2.20;;;20.70;99.90;;;;;;5053016;28;20414;-85
2022/06/09 07:34:27;;;;;;;5.63;2.60;;;20.70;99.90;;;;;;5052530;28;20056;-86
2022/06/09 07:36:53;;;;;;;10.15;2.42;;;20.50;99.90;;;;;;5052284;28;20499;-86
2022/06/09 07:39:19;;;;;;;6.32;2.47;;;19.90;99.90;;;;;;5052650;28;20047;-87
2022/06/09 07:41:45;;;;;;;5.80;2.10;;;19.30;99.90;;;;;;5035584;28;20052;-88
2022/06/09 07:44:12;;;;;;;4.85;1.98;;;19.20;99.90;;;;;;5035924;28;20397;-87
2022/06/09 07:46:39;;;;;;;6.50;2.35;;;19.60;99.90;;;;;;5052297;28;20070;-87
2022/06/09 07:49:06;;;;;;;5.85;2.00;;;20.20;99.90;;;;;;5053092;28;20055;-85
2022/06/09 07:51:31;;;;;;;2.33;1.50;;;20.70;99.90;;;;;;5053096;28;20383;-86
2022/06/09 07:53:58;;;;;;;5.18;2.13;;;20.40;99.90;;;;;;5051473;28;20048;-87
2022/06/09 07:56:26;;;;;;;4.43;1.92;;;20.10;99.90;;;;;;5051487;28;20049;-88
2022/06/09 07:58:51;;;;;;;6.07;1.95;;;20.60;99.90;;;;;;5051984;28;20063;-89
2022/06/09 08:01:20;;;;;;;7.15;2.10;;;20.50;99.90;;;;;;5053200;28;20048;-87
2022/06/09 08:03:46;;;;;;;6.53;1.90;;;20.60;99.90;;;;;;5052809;28;20049;-87
2022/06/09 08:06:13;;;;;;;5.55;1.67;;;20.80;99.90;;;;;;5035344;28;20135;-87
2022/06/09 08:08:39;;;;;;;3.88;1.40;;;21.20;99.90;;;;;;5051850;28;20080;-90
2022/06/09 08:11:07;;;;;;;5.50;1.42;;;21.10;99.90;;;;;;5051825;28;20508;-92
2022/06/09 08:13:34;;;;;;;5.30;1.63;;;21.50;99.90;;;;;;5052716;28;20402;-87
2022/06/09 08:16:00;;;;;;;3.42;1.08;;;22.30;99.90;;;;;;5052919;28;20063;-85
2022/06/09 08:18:27;;;;;;;2.67;1.00;;;23.20;99.90;;;;;;5052813;28;20152;-84
2022/06/09 08:20:53;;;;;;;6.18;1.15;;;23.50;99.90;;;;;;5052262;28;20045;-85
2022/06/09 08:23:23;;;;;;;5.55;1.35;;;22.80;99.90;;;;;;5051546;28;20049;-87
2022/06/09 08:25:50;;;;;;;5.63;1.20;;;23.00;99.90;;;;;;5052518;28;20041;-87
2022/06/09 08:28:20;;;;;;;3.97;1.10;;;23.70;99.90;;;;;;5051831;28;20302;-86
2022/06/09 08:30:50;;;;;;;5.78;1.40;;;24.40;99.90;;;;;;5052286;28;20387;-86
2022/06/09 08:33:16;;;;;;;3.78;1.20;;;23.90;99.90;;;;;;5035412;28;20041;-85
2022/06/09 08:35:44;;;;;;;3.55;1.27;;;22.90;99.90;;;;;;5053073;28;20099;-87
2022/06/09 08:38:10;;;;;;;7.13;1.35;;;22.70;99.90;;;;;;5053316;28;20057;-91
2022/06/09 08:41:17;;;;;;;4.97;1.20;;;23.30;99.90;;;;;;5052442;28;20055;-87
2022/06/09 08:44:09;;;;;;;4.82;1.45;;;23.60;99.90;;;;;;5051796;28;20071;-86
2022/06/09 08:46:51;;;;;;;5.47;1.10;;;23.00;99.90;;;;;;5051727;28;20450;-88
2022/06/09 08:50:13;;;;;;;5.28;0.98;;;22.90;99.90;;;;;;5051572;28;20060;-86
2022/06/09 08:53:13;;;;;;;3.50;1.00;;;23.90;99.90;;;;;;5051682;28;20064;-87
2022/06/09 08:55:53;;;;;;;2.85;0.98;;;24.70;99.90;;;;;;5052713;28;20401;-85
2022/06/09 08:58:23;;;;;;;4.72;1.15;;;23.90;99.90;;;;;;5052453;28;20465;-85
2022/06/09 09:00:55;;;;;;;7.17;1.20;;;23.50;99.90;;;;;;5052190;28;20478;-86
2022/06/09 09:03:31;;;;;;;5.40;1.27;;;24.10;99.90;;;;;;5054710;28;20558;-85
2022/06/09 09:05:59;;;;;;;5.00;1.20;;;24.70;97.90;;;;;;5055314;28;20092;-86
2022/06/09 09:08:25;;;;;;;6.50;1.20;;;25.30;96.20;;;;;;5054639;28;20053;-86
2022/06/09 09:11:14;;;;;;;5.70;1.00;;;25.50;94.40;;;;;;5038539;28;20465;-87
2022/06/09 09:13:50;;;;;;;3.22;1.00;;;25.60;92.00;;;;;;5055860;28;20045;-86
2022/06/09 09:16:27;;;;;;;5.82;0.93;;;25.90;88.90;;;;;;5038193;28;20107;-89
2022/06/09 09:19:27;;;;;;;4.07;0.80;;;25.90;86.40;;;;;;5055049;28;20041;-86
2022/06/09 09:22:31;;;;;;;4.13;1.03;;;26.40;93.20;;;;;;5054687;28;20047;-86
2022/06/09 09:25:06;;;;;;;3.33;0.82;;;25.30;95.10;;;;;;5053516;28;20057;-85
2022/06/09 09:27:49;;;;;;;6.65;1.27;;;25.10;92.10;;;;;;5055823;28;20490;-86
2022/06/09 09:30:15;;;;;;;3.55;1.00;;;24.90;96.90;;;;;;5055131;28;20106;-85
2022/06/09 09:32:53;;;;;;;5.45;1.30;;;25.40;87.00;;;;;;5055648;28;20474;-86
2022/06/09 09:35:23;;;;;;;2.92;1.00;;;25.50;84.10;;;;;;5037558;28;20041;-84
2022/06/09 09:37:52;;;;;;;3.45;0.90;;;24.60;88.60;;;;;;5054485;28;20056;-85
2022/06/09 09:40:39;;;;;;;4.97;1.23;;;24.70;90.90;;;;;;5054716;28;20102;-85
2022/06/09 09:43:10;;;;;;;4.57;0.80;;;24.30;96.20;;;;;;5037280;28;20486;-85
2022/06/09 09:45:44;;;;;;;4.70;1.10;;;24.10;91.60;;;;;;5055397;28;20394;-84
2022/06/09 09:48:21;;;;;;;3.13;0.90;;;24.90;84.10;;;;;;5055126;28;20049;-86
2022/06/09 09:50:52;;;;;;;3.58;0.80;;;25.70;87.00;;;;;;5037525;28;20067;-85
2022/06/09 09:53:21;;;;;;;3.88;0.80;;;26.60;74.40;;;;;;5053973;28;20041;-85
2022/06/09 09:56:30;;;;;;;4.63;1.00;;;27.10;64.60;;;;;;5054127;28;20098;-84
2022/06/09 09:58:59;;;;;;;7.03;1.20;;;26.80;68.80;;;;;;5038880;28;20048;-85
2022/06/09 10:01:27;;;;;;;2.42;0.82;;;26.80;71.40;;;;;;5055325;28;20052;-83
2022/06/09 10:09:38;;;;;;;2.78;0.80;;;26.80;65.80;;;;;;5054068;28;20071;-84
2022/06/09 10:12:16;;;;;;;4.40;0.90;;;26.30;68.90;;;;;;5036796;28;20080;-85
2022/06/09 10:15:11;;;;;;;3.30;0.90;;;26.60;71.90;;;;;;5053547;28;20453;-85
2022/06/09 10:17:51;;;;;;;3.33;0.80;;;26.80;67.80;;;;;;5054894;28;20114;-85
2022/06/09 10:20:20;;;;;;;;;;;27.20;64.40;;;;;;5054367;28;20055;-86
2022/06/09 10:23:09;;;;;;;6.18;1.10;;;27.20;64.00;;;;;;5054033;28;20286;-88
2022/06/09 10:25:55;;;;;;;4.80;0.90;;;26.80;65.20;;;;;;5053678;28;20049;-85
2022/06/09 10:28:50;;;;;;;5.03;1.02;;;26.70;72.20;;;;;;5053677;28;20387;-90
2022/06/09 10:31:26;;;;;;;4.65;1.00;;;27.40;61.50;;;;;;5053715;28;20107;-86
2022/06/09 10:33:59;;;;;;;4.22;0.90;;;27.60;60.80;;;;;;5036445;28;20045;-85
2022/06/09 10:36:39;;;;;;;6.18;1.10;;;27.80;59.20;;;;;;5054304;28;20478;-85
2022/06/09 10:39:22;;;;;;;3.85;0.70;;;27.60;59.80;;;;;;5054732;28;20074;-85
2022/06/09 10:41:55;;;;;;;3.67;0.77;;;27.40;59.50;;;;;;5054669;28;20045;-84
2022/06/09 10:44:47;;;;;;;6.22;0.98;;;27.40;58.60;;;;;;5053941;28;20044;-86
2022/06/09 10:56:29;;;;;;;2.88;0.70;;;28.40;53.60;;;;;;5052888;28;20106;-85
2022/06/09 10:59:05;;;;;;;4.50;0.90;;;28.30;53.90;;;;;;5052681;28;20053;-84
2022/06/09 11:01:33;;;;;;;2.28;0.70;;;28.30;54.10;;;;;;5036356;28;20474;-85
2022/06/09 11:04:01;;;;;;;2.70;0.75;;;28.20;53.30;;;;;;5052886;28;20440;-84
2022/06/09 11:06:56;;;;;;;4.25;0.88;;;27.80;54.30;;;;;;5053736;28;20041;-85
2022/06/09 11:09:31;;;;;;;3.75;0.75;;;27.60;53.00;;;;;;4995142;28;20140;-84
2022/06/09 11:11:59;;;;;;;4.68;1.00;;;27.30;55.40;;;;;;5011853;28;20590;-85
2022/06/09 11:14:47;;;;;;;3.80;0.80;;;27.10;57.00;;;;;;4995346;28;20507;-84
2022/06/09 11:17:27;;;;;;;3.83;1.08;;;26.70;55.90;;;;;;4995979;28;20427;-86
2022/06/09 11:20:02;;;;;;;3.40;0.90;;;26.10;59.30;;;;;;4995597;28;20463;-86
2022/06/09 11:22:52;;;;;;;2.78;1.00;;;25.90;59.20;;;;;;4995637;28;20053;-84
2022/06/09 11:25:43;;;;;;;3.97;0.98;;;25.90;58.30;;;;;;4995105;28;20141;-85
2022/06/09 11:28:14;;;;;;;3.25;0.93;;;25.60;60.30;;;;;;4995360;28;20135;-84
2022/06/09 11:31:10;;;;;;;5.88;1.08;;;24.80;64.70;;;;;;4995207;28;20055;-85
2022/06/09 11:34:05;;;;;;;4.25;0.85;;;23.90;69.50;;;;;;4995048;28;20054;-87
2022/06/09 11:36:41;;;;;;;4.75;1.00;;;23.40;75.30;;;;;;4995020;28;20054;-84
2022/06/09 11:39:35;;;;;;;2.55;0.60;;;23.60;74.60;;;;;;5011124;28;20049;-84
2022/06/09 11:42:20;;;;;;;6.32;1.30;;;23.80;74.80;;;;;;4979314;28;20487;-87
2022/06/09 11:44:48;;;;;;;3.35;1.05;;;24.10;70.10;;;;;;4994650;28;20090;-83
2022/06/09 11:47:19;;;;;;;5.68;1.02;;;24.60;72.20;;;;;;5046131;28;20052;-89
2022/06/09 11:49:53;;;;;;;6.43;1.10;;;25.40;65.10;;;;;;5053003;28;20467;-83
2022/06/09 11:52:29;;;;;;;4.30;0.85;;;26.20;61.80;;;;;;5035408;28;20406;-85
2022/06/09 11:54:55;;;;;;;5.90;1.00;;;26.90;58.20;;;;;;5052696;28;20087;-83
2022/06/09 11:57:39;;;;;;;3.33;0.90;;;27.30;56.60;;;;;;5035126;28;20084;-84
2022/06/09 12:00:24;;;;;;;5.35;1.00;;;27.50;57.00;;;;;;5051811;28;20052;-85
2022/06/09 12:03:12;;;;;;;5.25;1.23;;;27.90;52.20;;;;;;5035223;28;20045;-83
2022/06/09 12:05:53;;;;;;;3.72;1.10;;;28.00;54.00;;;;;;5051709;28;20048;-84
2022/06/09 12:08:27;;;;;;;3.90;0.90;;;28.40;54.80;;;;;;5052701;28;20052;-83
2022/06/09 12:11:10;;;;;;;5.28;1.10;;;28.70;54.70;;;;;;5051949;28;20048;-84
2022/06/09 12:14:00;;;;;;;2.53;0.90;;;28.80;52.40;;;;;;5051824;28;20045;-84
2022/06/09 12:16:45;;;;;;;5.53;1.55;;;28.40;52.80;;;;;;5052552;28;20084;-83
2022/06/09 12:19:13;;;;;;;3.85;0.88;;;28.60;53.10;;;;;;5051948;28;20395;-84
2022/06/09 12:21:42;;;;;;;2.17;0.80;;;28.70;52.70;;;;;;5051502;28;20418;-84
2022/06/09 12:24:13;;;;;;;3.13;0.90;;;28.90;51.20;;;;;;5052896;28;20056;-84
2022/06/09 12:26:50;;;;;;;4.32;1.08;;;28.90;51.30;;;;;;5051500;28;20045;-85
2022/06/09 12:29:37;;;;;;;6.30;1.40;;;28.70;50.60;;;;;;5052562;28;20064;-83
2022/06/09 12:32:09;;;;;;;3.65;1.00;;;27.70;51.60;;;;;;5052502;28;20489;-85
2022/06/09 12:34:43;;;;;;;6.03;1.05;;;26.50;54.30;;;;;;5035965;28;20092;-85
2022/06/09 12:37:31;;;;;;;3.78;1.00;;;26.50;54.50;;;;;;5054147;28;20088;-85
2022/06/09 12:40:01;;;;;;;6.30;1.17;;;26.70;53.60;;;;;;5056569;28;20056;-83
2022/06/09 12:42:41;;;;;;;3.40;0.75;;;27.00;54.70;;;;;;5055506;28;20394;-86
2022/06/09 12:45:16;;;;;;;8.52;1.17;;;27.40;52.30;;;;;;5056259;28;20056;-87
2022/06/09 12:48:09;;;;;;;6.50;1.35;;;27.60;51.90;;;;;;5054882;28;20372;-85
2022/06/09 12:50:38;;;;;;;4.50;0.98;;;27.30;50.60;;;;;;5054786;28;20099;-84
2022/06/09 12:53:07;;;;;;;5.07;1.50;;;26.00;53.80;;;;;;5055047;28;20433;-84
2022/06/09 12:55:35;;;;;;;6.05;1.13;;;25.50;58.40;;;;;;5038502;28;20450;-84
2022/06/09 12:58:16;;;;;;;4.38;1.15;;;25.30;57.30;;;;;;5055211;28;20136;-85
2022/06/09 13:00:48;;;;;;;6.43;1.52;;;24.90;60.20;;;;;;5055781;28;20087;-85
2022/06/09 13:03:15;;;;;;;6.95;1.45;;;24.70;61.10;;;;;;5038605;28;20052;-83
2022/06/09 13:05:41;;;;;;;5.43;1.50;;;24.30;63.50;;;;;;5055011;28;20041;-83
2022/06/09 13:08:23;;;;;;;6.10;1.20;;;24.00;62.80;;;;;;5055755;28;20258;-83
2022/06/09 13:11:03;;;;;;;3.30;1.10;;;24.20;63.10;;;;;;5055207;28;20080;-84
2022/06/09 13:13:44;;;;;;;5.53;1.20;;;25.00;58.90;;;;;;5054346;28;20064;-83
2022/06/09 13:16:39;;;;;;;;;;;25.20;59.70;;;;;;5056246;28;20059;-84
2022/06/09 13:19:06;;;;;;;11.98;1.30;;;25.60;59.70;;;;;;5053289;28;19925;-85
2022/06/09 13:21:37;;;;;;;7.15;1.35;;;25.40;58.50;;;;;;5038041;28;20064;-84
2022/06/09 13:24:03;;;;;;;;;;;25.50;58.70;;;;;;5055441;28;20475;-84
2022/06/09 13:26:37;;;;;;;6.28;1.20;;;26.10;58.00;;;;;;5054513;28;20400;-83
2022/06/09 13:29:08;;;;;;;5.28;1.20;;;26.80;55.10;;;;;;5055616;28;20106;-83
2022/06/09 13:31:42;;;;;;;7.65;1.55;;;27.20;53.70;;;;;;5055604;28;20052;-85